createdAt,value
2018-09-06T00:01:37.384Z,69.07
2018-09-06T00:04:05.603Z,69.21
2018-09-06T00:06:33.820Z,69.31
2018-09-06T00:09:02.032Z,68.57
2018-09-06T00:11:30.240Z,68.52
2018-09-06T00:13:58.472Z,69.36
2018-09-06T00:16:26.668Z,69.80
2018-09-06T00:18:54.855Z,69.94
2018-09-06T00:21:23.082Z,70.03
2018-09-06T00:23:51.311Z,69.47
2018-09-06T00:26:19.579Z,70.23
2018-09-06T00:28:47.864Z,69.43
2018-09-06T00:31:16.056Z,69.58
2018-09-06T00:33:44.337Z,70.49
2018-09-06T00:36:12.614Z,69.62
2018-09-06T00:38:40.876Z,69.75
2018-09-06T00:41:09.076Z,70.47
2018-09-06T00:43:37.375Z,69.98
2018-09-06T00:46:05.607Z,69.46
2018-09-06T00:48:33.796Z,69.20
2018-09-06T00:51:02.131Z,70.44
2018-09-06T00:53:30.330Z,70.44
2018-09-06T00:55:58.553Z,70.62
2018-09-06T00:58:26.836Z,70.61
2018-09-06T01:00:55.066Z,70.33
2018-09-06T01:03:23.354Z,69.35
2018-09-06T01:05:51.603Z,70.49
2018-09-06T01:08:19.819Z,69.65
2018-09-06T01:10:48.003Z,70.59
2018-09-06T01:13:16.266Z,69.79
2018-09-06T01:15:44.568Z,69.69
2018-09-06T01:18:12.735Z,69.75
2018-09-06T01:20:40.971Z,70.33
2018-09-06T01:23:09.256Z,71.25
2018-09-06T01:25:42.894Z,71.39
2018-09-06T01:28:11.103Z,71.54
2018-09-06T01:30:39.303Z,71.42
2018-09-06T01:33:07.608Z,71.34
2018-09-06T01:35:35.851Z,71.07
2018-09-06T01:38:04.079Z,71.01
2018-09-06T01:40:32.407Z,71.80
2018-09-06T01:43:00.627Z,72.40
2018-09-06T01:45:28.863Z,72.78
2018-09-06T01:47:57.159Z,73.05
2018-09-06T01:50:25.378Z,72.21
2018-09-06T01:52:53.616Z,73.36
2018-09-06T01:55:21.840Z,72.44
2018-09-06T01:57:50.036Z,72.52
2018-09-06T02:00:18.308Z,72.95
2018-09-06T02:02:46.641Z,73.93
2018-09-06T02:05:18.982Z,73.37
2018-09-06T02:07:47.293Z,74.31
2018-09-06T02:10:15.545Z,73.50
2018-09-06T02:12:43.737Z,73.77
2018-09-06T02:15:11.926Z,74.74
2018-09-06T02:17:40.106Z,74.05
2018-09-06T02:20:08.349Z,75.17
2018-09-06T02:22:36.686Z,74.19
2018-09-06T02:25:05.008Z,74.19
2018-09-06T02:27:33.227Z,75.15
2018-09-06T02:30:01.421Z,75.42
2018-09-06T02:32:29.656Z,75.37
2018-09-06T02:34:57.919Z,74.71
2018-09-06T02:37:26.174Z,74.38
2018-09-06T02:39:54.372Z,75.65
2018-09-06T02:42:22.631Z,75.32
2018-09-06T02:44:50.840Z,75.74
2018-09-06T02:47:19.098Z,75.45
2018-09-06T02:49:52.795Z,75.29
2018-09-06T02:52:21.032Z,76.23
2018-09-06T02:54:49.227Z,75.49
2018-09-06T02:57:17.586Z,75.59
2018-09-06T02:59:47.125Z,75.79
2018-09-06T03:02:15.315Z,76.30
2018-09-06T03:04:43.614Z,76.93
2018-09-06T03:07:11.823Z,77.04
2018-09-06T03:09:40.050Z,77.39
2018-09-06T03:12:09.287Z,77.59
2018-09-06T03:14:37.557Z,77.67
2018-09-06T03:17:05.808Z,77.21
2018-09-06T03:19:34.011Z,78.26
2018-09-06T03:22:02.222Z,77.85
2018-09-06T03:24:30.423Z,77.80
2018-09-06T03:26:58.703Z,77.41
2018-09-06T03:29:26.953Z,77.22
2018-09-06T03:31:55.137Z,78.50
2018-09-06T03:34:23.326Z,77.71
2018-09-06T03:36:51.543Z,78.63
2018-09-06T03:39:19.770Z,77.50
2018-09-06T03:41:47.967Z,77.83
2018-09-06T03:44:16.175Z,77.40
2018-09-06T03:46:44.417Z,77.65
2018-09-06T03:49:12.671Z,78.55
2018-09-06T03:51:40.840Z,78.03
2018-09-06T03:54:09.055Z,77.21
2018-09-06T03:56:37.271Z,77.04
2018-09-06T03:59:05.496Z,78.52
2018-09-06T04:01:33.764Z,78.06
2018-09-06T04:04:01.995Z,78.79
2018-09-06T04:06:30.241Z,79.18
2018-09-06T04:08:58.443Z,78.44
2018-09-06T04:11:26.646Z,79.48
2018-09-06T04:13:54.915Z,79.93
2018-09-06T04:16:23.240Z,80.96
2018-09-06T04:18:51.541Z,82.31
2018-09-06T04:21:19.740Z,83.10
2018-09-06T04:23:47.973Z,83.11
2018-09-06T04:26:16.223Z,82.55
2018-09-06T04:28:44.440Z,82.88
2018-09-06T04:31:12.679Z,83.37
2018-09-06T04:33:40.882Z,83.65
2018-09-06T04:36:09.128Z,83.38
2018-09-06T04:38:37.334Z,83.50
2018-09-06T04:41:05.607Z,83.12
2018-09-06T04:43:33.952Z,83.47
2018-09-06T04:46:02.087Z,83.49
2018-09-06T04:48:30.280Z,82.89
2018-09-06T04:50:58.519Z,81.60
2018-09-06T04:53:26.731Z,82.28
2018-09-06T04:55:54.971Z,81.16
2018-09-06T04:58:23.372Z,81.19
2018-09-06T05:00:51.564Z,82.18
2018-09-06T05:03:19.776Z,82.64
2018-09-06T05:05:48.083Z,82.83
2018-09-06T05:08:16.496Z,82.96
2018-09-06T05:10:45.041Z,82.35
2018-09-06T05:13:13.291Z,82.30
2018-09-06T05:15:41.515Z,82.47
2018-09-06T05:18:09.739Z,82.43
2018-09-06T05:20:38.130Z,83.04
2018-09-06T05:23:06.341Z,82.88
2018-09-06T05:25:34.813Z,82.53
2018-09-06T05:28:02.997Z,82.60
2018-09-06T05:30:31.194Z,81.93
2018-09-06T05:32:59.486Z,82.33
2018-09-06T05:35:27.673Z,82.98
2018-09-06T05:37:55.884Z,83.50
2018-09-06T05:40:24.129Z,83.76
2018-09-06T05:42:52.338Z,82.47
2018-09-06T05:45:20.622Z,83.15
2018-09-06T05:47:54.290Z,82.74
2018-09-06T05:50:22.518Z,82.65
2018-09-06T05:52:51.118Z,82.69
2018-09-06T05:55:19.605Z,82.78
2018-09-06T05:57:47.896Z,83.60
2018-09-06T06:00:21.404Z,83.23
2018-09-06T06:02:50.667Z,82.70
2018-09-06T06:05:18.918Z,83.63
2018-09-06T06:07:58.510Z,83.80
2018-09-06T06:10:26.775Z,82.99
2018-09-06T06:12:55.265Z,83.90
2018-09-06T06:15:23.564Z,82.67
2018-09-06T06:17:51.811Z,83.81
2018-09-06T06:20:20.142Z,84.13
2018-09-06T06:22:48.342Z,83.23
2018-09-06T06:25:16.531Z,84.39
2018-09-06T06:27:44.797Z,84.33
2018-09-06T06:30:13.147Z,83.82
2018-09-06T06:32:41.473Z,83.71
2018-09-06T06:35:09.682Z,83.98
2018-09-06T06:37:37.967Z,84.17
2018-09-06T06:40:06.254Z,83.44
2018-09-06T06:42:34.921Z,83.43
2018-09-06T06:45:03.172Z,83.42
2018-09-06T06:47:31.410Z,84.29
2018-09-06T06:49:59.594Z,83.82
2018-09-06T06:52:27.826Z,83.16
2018-09-06T06:54:56.093Z,84.42
2018-09-06T06:57:24.359Z,84.27
2018-09-06T06:59:52.546Z,84.03
2018-09-06T07:02:20.781Z,83.19
2018-09-06T07:04:49.002Z,83.89
2018-09-06T07:07:17.325Z,83.10
2018-09-06T07:09:45.513Z,83.47
2018-09-06T07:12:13.714Z,83.57
2018-09-06T07:14:41.918Z,83.68
2018-09-06T07:17:10.106Z,83.82
2018-09-06T07:19:38.314Z,83.45
2018-09-06T07:22:06.531Z,83.43
2018-09-06T07:24:34.767Z,84.01
2018-09-06T07:27:03.051Z,83.76
2018-09-06T07:29:31.262Z,84.72
2018-09-06T07:31:59.574Z,83.23
2018-09-06T07:34:27.765Z,84.08
2018-09-06T07:36:55.969Z,84.28
2018-09-06T07:39:24.151Z,84.44
2018-09-06T07:41:52.388Z,84.34
2018-09-06T07:44:21.422Z,84.39
2018-09-06T07:46:49.702Z,83.99
2018-09-06T07:49:17.919Z,84.47
2018-09-06T07:51:46.138Z,84.24
2018-09-06T07:54:14.338Z,84.69
2018-09-06T07:56:42.603Z,83.91
2018-09-06T07:59:10.933Z,83.54
2018-09-06T08:01:39.209Z,84.25
2018-09-06T08:04:07.340Z,84.61
2018-09-06T08:06:35.515Z,84.46
2018-09-06T08:09:05.410Z,83.46
2018-09-06T08:11:33.631Z,83.54
2018-09-06T08:14:01.856Z,83.52
2018-09-06T08:16:30.054Z,84.76
2018-09-06T08:18:58.335Z,84.99
2018-09-06T08:21:26.452Z,84.79
2018-09-06T08:23:54.675Z,84.89
2018-09-06T08:26:22.882Z,85.11
2018-09-06T08:28:51.111Z,84.57
2018-09-06T08:31:19.300Z,83.72
2018-09-06T08:33:47.559Z,83.74
2018-09-06T08:36:15.893Z,84.53
2018-09-06T08:38:44.318Z,84.33
2018-09-06T08:41:12.474Z,83.78
2018-09-06T08:43:40.654Z,84.67
2018-09-06T08:46:08.971Z,84.72
2018-09-06T08:48:37.272Z,83.83
2018-09-06T08:51:06.449Z,84.74
2018-09-06T08:53:34.706Z,84.76
2018-09-06T08:56:03.187Z,84.67
2018-09-06T08:58:31.497Z,84.94
2018-09-06T09:01:05.050Z,85.08
2018-09-06T09:03:33.347Z,84.19
2018-09-06T09:06:01.603Z,85.07
2018-09-06T09:08:29.891Z,85.04
2018-09-06T09:10:58.044Z,85.11
2018-09-06T09:13:26.398Z,84.63
2018-09-06T09:15:54.664Z,84.70
2018-09-06T09:18:22.926Z,83.91
2018-09-06T09:20:51.186Z,84.32
2018-09-06T09:23:19.359Z,83.78
2018-09-06T09:25:47.660Z,84.51
2018-09-06T09:28:15.881Z,83.62
2018-09-06T09:30:44.229Z,84.71
2018-09-06T09:33:12.420Z,83.73
2018-09-06T09:35:40.630Z,83.73
2018-09-06T09:38:09.024Z,83.93
2018-09-06T09:40:37.298Z,84.48
2018-09-06T09:43:05.842Z,83.54
2018-09-06T09:45:34.054Z,83.71
2018-09-06T09:48:02.238Z,83.54
2018-09-06T09:52:57.966Z,83.83
2018-09-06T09:55:26.154Z,82.89
2018-09-06T09:57:54.345Z,83.58
2018-09-06T10:00:27.767Z,83.00
2018-09-06T10:03:01.316Z,82.42
2018-09-06T10:05:34.914Z,82.33
2018-09-06T10:08:07.354Z,82.96
2018-09-06T10:10:35.637Z,82.80
2018-09-06T10:13:03.863Z,82.88
2018-09-06T10:15:32.147Z,83.51
2018-09-06T10:18:00.481Z,82.24
2018-09-06T10:20:28.683Z,81.63
2018-09-06T10:22:56.999Z,82.45
2018-09-06T10:25:25.247Z,82.07
2018-09-06T10:27:53.653Z,82.52
2018-09-06T10:30:22.399Z,83.31
2018-09-06T10:32:50.743Z,83.87
2018-09-06T10:35:19.046Z,83.19
2018-09-06T10:37:47.316Z,83.88
2018-09-06T10:40:15.513Z,83.62
2018-09-06T10:42:43.799Z,82.97
2018-09-06T10:45:12.071Z,83.04
2018-09-06T10:47:40.420Z,83.50
2018-09-06T10:50:08.581Z,84.13
2018-09-06T10:52:36.956Z,84.32
2018-09-06T10:55:05.244Z,83.94
2018-09-06T10:57:33.484Z,84.11
2018-09-06T11:00:01.678Z,83.29
2018-09-06T11:02:29.927Z,83.53
2018-09-06T11:04:58.207Z,84.13
2018-09-06T11:07:26.468Z,82.96
2018-09-06T11:09:54.676Z,82.78
2018-09-06T11:12:22.919Z,82.65
2018-09-06T11:14:51.127Z,82.79
2018-09-06T11:17:19.380Z,83.00
2018-09-06T11:19:47.708Z,82.99
2018-09-06T11:22:16.056Z,82.47
2018-09-06T11:24:44.134Z,83.09
2018-09-06T11:27:12.322Z,82.96
2018-09-06T11:29:40.511Z,81.90
2018-09-06T11:32:08.768Z,81.23
2018-09-06T11:34:37.091Z,81.66
2018-09-06T11:37:05.393Z,81.94
2018-09-06T11:39:33.603Z,81.51
2018-09-06T11:42:01.854Z,81.93
2018-09-06T11:44:30.149Z,82.11
2018-09-06T11:46:59.064Z,82.31
2018-09-06T11:49:27.218Z,83.63
2018-09-06T11:51:55.459Z,82.75
2018-09-06T11:54:23.703Z,81.25
2018-09-06T11:56:52.066Z,81.00
2018-09-06T11:59:20.279Z,81.31
2018-09-06T12:01:48.582Z,81.87
2018-09-06T12:04:17.105Z,81.38
2018-09-06T12:06:45.315Z,82.26
2018-09-06T12:09:13.496Z,80.71
2018-09-06T12:11:41.841Z,80.97
2018-09-06T12:14:10.071Z,80.88
2018-09-06T12:16:38.262Z,81.54
2018-09-06T12:19:06.459Z,81.25
2018-09-06T12:21:34.895Z,81.00
2018-09-06T12:24:03.462Z,79.79
2018-09-06T12:26:31.773Z,81.22
2018-09-06T12:29:00.017Z,80.55
2018-09-06T12:31:28.188Z,81.59
2018-09-06T12:33:56.521Z,79.12
2018-09-06T12:36:24.811Z,79.45
2018-09-06T12:38:53.139Z,80.87
2018-09-06T12:41:21.354Z,79.95
2018-09-06T12:43:49.538Z,79.60
2018-09-06T12:46:17.746Z,78.45
2018-09-06T12:48:46.044Z,78.48
2018-09-06T12:51:14.323Z,78.02
2018-09-06T12:53:42.607Z,77.99
2018-09-06T12:56:10.831Z,77.72
2018-09-06T12:58:39.123Z,78.39
2018-09-06T13:01:07.464Z,78.71
2018-09-06T13:03:35.799Z,77.36
2018-09-06T13:06:04.050Z,77.63
2018-09-06T13:08:32.331Z,79.48
2018-09-06T13:11:00.558Z,79.10
2018-09-06T13:13:28.775Z,78.65
2018-09-06T13:15:56.963Z,77.48
2018-09-06T13:18:25.202Z,77.41
2018-09-06T13:20:53.415Z,76.08
2018-09-06T13:23:21.658Z,75.09
2018-09-06T13:25:49.903Z,75.69
2018-09-06T13:28:18.141Z,75.11
2018-09-06T13:30:46.381Z,76.30
2018-09-06T13:33:14.689Z,76.62
2018-09-06T13:35:42.979Z,74.83
2018-09-06T13:38:11.115Z,75.44
2018-09-06T13:40:39.363Z,75.94
2018-09-06T13:43:07.563Z,76.40
2018-09-06T13:45:35.817Z,76.12
2018-09-06T13:48:04.038Z,75.56
2018-09-06T13:50:32.295Z,75.97
2018-09-06T13:53:00.667Z,76.69
2018-09-06T13:55:29.129Z,74.12
2018-09-06T13:57:57.358Z,72.91
2018-09-06T14:00:25.547Z,74.03
2018-09-06T14:02:53.727Z,73.10
2018-09-06T14:05:21.931Z,73.51
2018-09-06T14:07:50.175Z,72.80
2018-09-06T14:10:18.397Z,73.18
2018-09-06T14:12:46.593Z,73.74
2018-09-06T14:15:14.858Z,72.96
2018-09-06T14:17:43.112Z,73.23
2018-09-06T14:20:11.399Z,73.64
2018-09-06T14:22:39.647Z,74.36
2018-09-06T14:25:07.855Z,73.36
2018-09-06T14:27:36.079Z,74.30
2018-09-06T14:30:04.382Z,73.23
2018-09-06T14:32:32.621Z,73.58
2018-09-06T14:35:00.850Z,74.58
2018-09-06T14:37:29.020Z,73.48
2018-09-06T14:39:57.249Z,74.05
2018-09-06T14:42:25.452Z,73.74
2018-09-06T14:44:53.687Z,74.37
2018-09-06T14:47:21.892Z,74.14
2018-09-06T14:49:50.143Z,74.86
2018-09-06T14:52:18.426Z,74.71
2018-09-06T14:54:46.747Z,74.44
2018-09-06T14:57:15.017Z,74.70
2018-09-06T14:59:43.271Z,74.75
2018-09-06T15:02:11.474Z,74.60
2018-09-06T15:04:39.691Z,74.09
2018-09-06T15:07:07.979Z,74.31
2018-09-06T15:09:36.218Z,74.62
2018-09-06T15:12:05.912Z,73.80
2018-09-06T15:14:34.216Z,76.14
2018-09-06T15:17:02.487Z,75.52
2018-09-06T15:19:30.796Z,74.62
2018-09-06T15:22:02.598Z,75.10
2018-09-06T15:24:30.772Z,75.96
2018-09-06T15:26:59.039Z,74.08
2018-09-06T15:29:27.255Z,75.31
2018-09-06T15:31:55.476Z,74.86
2018-09-06T15:34:24.414Z,76.68
2018-09-06T15:36:52.662Z,76.30
2018-09-06T15:39:20.884Z,76.37
2018-09-06T15:41:49.102Z,76.20
2018-09-06T15:44:17.328Z,75.81
2018-09-06T15:46:45.605Z,74.76
2018-09-06T15:49:13.899Z,74.64
2018-09-06T15:51:42.123Z,74.40
2018-09-06T15:54:10.402Z,71.24
2018-09-06T15:56:38.586Z,70.81
2018-09-06T15:59:07.147Z,72.73
2018-09-06T16:01:35.478Z,72.89
2018-09-06T16:04:03.689Z,72.25
2018-09-06T16:06:31.901Z,73.28
2018-09-06T16:09:00.120Z,72.50
2018-09-06T16:11:28.323Z,72.63
2018-09-06T16:13:56.552Z,71.00
2018-09-06T16:16:24.752Z,72.27
2018-09-06T16:18:52.966Z,71.07
2018-09-06T16:21:21.150Z,72.43
2018-09-06T16:23:49.347Z,71.59
2018-09-06T16:26:17.543Z,71.69
2018-09-06T16:28:45.787Z,72.74
2018-09-06T16:31:14.051Z,72.71
2018-09-06T16:33:42.346Z,72.11
2018-09-06T16:36:10.568Z,71.92
2018-09-06T16:38:38.775Z,72.92
2018-09-06T16:41:06.978Z,72.71
2018-09-06T16:43:35.311Z,73.75
2018-09-06T16:46:03.551Z,73.74
2018-09-06T16:48:31.742Z,72.20
2018-09-06T16:50:59.974Z,73.07
2018-09-06T16:53:28.185Z,73.29
2018-09-06T16:55:56.463Z,73.30
2018-09-06T16:58:24.701Z,74.23
2018-09-06T17:00:53.034Z,73.68
2018-09-06T17:03:21.179Z,73.78
2018-09-06T17:05:49.367Z,73.35
2018-09-06T17:08:17.618Z,74.20
2018-09-06T17:10:45.807Z,74.39
2018-09-06T17:13:14.030Z,73.71
2018-09-06T17:15:42.252Z,74.16
2018-09-06T17:18:10.449Z,73.93
2018-09-06T17:20:38.672Z,74.21
2018-09-06T17:23:06.981Z,74.53
2018-09-06T17:25:35.178Z,75.13
2018-09-06T17:28:06.967Z,74.64
2018-09-06T17:30:35.270Z,75.24
2018-09-06T17:33:03.550Z,74.71
2018-09-06T17:35:31.717Z,75.00
2018-09-06T17:37:59.894Z,75.25
2018-09-06T17:40:28.216Z,75.06
2018-09-06T17:42:56.575Z,76.26
2018-09-06T17:45:24.986Z,75.48
2018-09-06T17:47:53.269Z,75.85
2018-09-06T17:50:21.439Z,75.80
2018-09-06T17:52:49.664Z,75.36
2018-09-06T17:55:17.850Z,75.17
2018-09-06T17:57:46.061Z,74.76
2018-09-06T18:00:14.264Z,75.06
2018-09-06T18:02:42.506Z,74.27
2018-09-06T18:05:10.717Z,73.81
2018-09-06T18:07:38.930Z,73.97
2018-09-06T18:10:07.204Z,74.75
2018-09-06T18:12:35.433Z,75.22
2018-09-06T18:15:03.658Z,75.28
2018-09-06T18:17:31.989Z,74.20
2018-09-06T18:20:00.202Z,74.56
2018-09-06T18:22:28.497Z,75.28
2018-09-06T18:24:56.799Z,75.92
2018-09-06T18:27:25.027Z,75.79
2018-09-06T18:29:53.326Z,74.78
2018-09-06T18:32:21.627Z,75.62
2018-09-06T18:34:49.943Z,74.76
2018-09-06T18:37:18.113Z,75.51
2018-09-06T18:39:46.475Z,74.03
2018-09-06T18:42:14.665Z,75.06
2018-09-06T18:44:49.212Z,73.80
2018-09-06T18:47:17.595Z,73.85
2018-09-06T18:49:45.813Z,73.60
2018-09-06T18:52:13.994Z,73.14
2018-09-06T18:54:42.217Z,74.01
2018-09-06T18:57:10.418Z,73.59
2018-09-06T18:59:38.627Z,72.19
2018-09-06T19:02:06.884Z,71.80
2018-09-06T19:04:35.015Z,72.55
2018-09-06T19:07:03.235Z,72.28
2018-09-06T19:09:31.536Z,72.98
2018-09-06T19:11:59.767Z,73.33
2018-09-06T19:14:28.475Z,72.08
2018-09-06T19:16:56.643Z,72.67
2018-09-06T19:19:24.947Z,73.57
2018-09-06T19:21:53.154Z,73.76
2018-09-06T19:24:21.368Z,72.93
2018-09-06T19:26:49.543Z,72.45
2018-09-06T19:29:17.742Z,71.83
2018-09-06T19:31:46.142Z,72.41
2018-09-06T19:34:14.279Z,72.07
2018-09-06T19:36:42.468Z,72.10
2018-09-06T19:39:12.022Z,73.02
2018-09-06T19:41:40.174Z,73.27
2018-09-06T19:44:08.422Z,72.92
2018-09-06T19:46:36.894Z,73.21
2018-09-06T19:49:05.229Z,72.93
2018-09-06T19:51:33.445Z,72.58
2018-09-06T19:54:01.649Z,73.43
2018-09-06T19:56:29.844Z,72.69
2018-09-06T19:58:58.003Z,72.37
2018-09-06T20:01:26.274Z,73.14
2018-09-06T20:03:54.478Z,73.37
2018-09-06T20:06:22.651Z,73.29
2018-09-06T20:08:50.964Z,72.82
2018-09-06T20:11:19.159Z,73.25
2018-09-06T20:13:47.423Z,72.89
2018-09-06T20:16:15.682Z,73.03
2018-09-06T20:18:43.863Z,73.84
2018-09-06T20:21:12.355Z,74.19
2018-09-06T20:23:40.559Z,74.08
2018-09-06T20:26:08.802Z,72.91
2018-09-06T20:28:37.031Z,74.05
2018-09-06T20:31:05.611Z,74.59
2018-09-06T20:33:34.050Z,74.50
2018-09-06T20:36:02.300Z,73.38
2018-09-06T20:38:30.528Z,73.17
2018-09-06T20:40:58.696Z,73.81
2018-09-06T20:43:26.918Z,74.29
2018-09-06T20:45:55.110Z,74.15
2018-09-06T20:48:23.523Z,73.67
2018-09-06T20:50:51.885Z,74.22
2018-09-06T20:53:20.248Z,73.57
2018-09-06T20:55:48.707Z,74.20
2018-09-06T20:58:16.923Z,73.39
2018-09-06T21:00:45.106Z,74.41
2018-09-06T21:03:13.417Z,73.76
2018-09-06T21:05:41.703Z,73.34
2018-09-06T21:08:09.930Z,73.92
2018-09-06T21:10:38.270Z,74.76
2018-09-06T21:13:06.564Z,74.58
2018-09-06T21:15:35.076Z,74.26
2018-09-06T21:18:03.488Z,74.31
2018-09-06T21:20:31.808Z,74.88
2018-09-06T21:23:00.224Z,74.00
2018-09-06T21:25:28.587Z,74.60
2018-09-06T21:27:56.967Z,74.93
2018-09-06T21:30:25.444Z,73.76
2018-09-06T21:32:53.741Z,74.33
2018-09-06T21:35:22.219Z,74.64
2018-09-06T21:37:50.664Z,73.86
2018-09-06T21:40:19.072Z,73.92
2018-09-06T21:42:47.290Z,74.57
2018-09-06T21:45:15.648Z,75.50
2018-09-06T21:47:43.996Z,75.19
2018-09-06T21:50:12.347Z,75.68
2018-09-06T21:52:40.855Z,75.50
2018-09-06T21:55:09.239Z,75.12
2018-09-06T21:57:37.643Z,74.96
2018-09-06T22:00:06.683Z,75.87
2018-09-06T22:02:40.320Z,76.48
2018-09-06T22:05:08.682Z,75.23
2018-09-06T22:07:37.363Z,75.21
2018-09-06T22:10:06.026Z,74.62
2018-09-06T22:12:34.396Z,74.85
2018-09-06T22:15:02.896Z,76.31
2018-09-06T22:17:31.091Z,75.54
2018-09-06T22:19:59.399Z,76.73
2018-09-06T22:22:27.766Z,76.78
2018-09-06T22:24:56.136Z,76.93
2018-09-06T22:27:24.362Z,76.26
2018-09-06T22:29:52.575Z,76.54
2018-09-06T22:32:20.939Z,77.07
2018-09-06T22:34:49.435Z,75.85
2018-09-06T22:37:17.628Z,76.76
2018-09-06T22:39:45.816Z,76.79
2018-09-06T22:42:14.116Z,76.12
2018-09-06T22:44:42.280Z,75.65
2018-09-06T22:47:10.500Z,76.56
2018-09-06T22:49:38.722Z,76.69
2018-09-06T22:52:06.942Z,76.67
2018-09-06T22:54:35.132Z,75.76
2018-09-06T22:57:03.338Z,76.38
2018-09-06T22:59:31.531Z,76.25
2018-09-06T23:01:59.995Z,75.90
2018-09-06T23:04:28.232Z,74.95
2018-09-06T23:06:56.429Z,76.03
2018-09-06T23:09:24.603Z,76.53
2018-09-06T23:11:52.816Z,75.42
2018-09-06T23:14:21.023Z,76.53
2018-09-06T23:16:49.240Z,76.15
2018-09-06T23:19:17.479Z,75.75
2018-09-06T23:21:45.703Z,75.09
2018-09-06T23:24:13.945Z,76.20
2018-09-06T23:26:43.843Z,76.19
2018-09-06T23:29:12.096Z,75.38
2018-09-06T23:31:40.370Z,76.10
2018-09-06T23:34:08.609Z,76.09
2018-09-06T23:36:36.815Z,75.89
2018-09-06T23:39:06.694Z,76.26
2018-09-06T23:41:34.910Z,75.24
2018-09-06T23:44:03.171Z,76.19
2018-09-06T23:46:31.402Z,76.66
2018-09-06T23:48:59.622Z,76.74
2018-09-06T23:51:27.814Z,76.90
2018-09-06T23:53:56.028Z,75.65
2018-09-06T23:56:24.245Z,76.10
2018-09-06T23:58:52.515Z,76.77
